createdAt,value
2022-10-19T00:01:00.622Z,97149.38
2022-10-19T00:03:26.957Z,97142.41
2022-10-19T00:05:53.289Z,97137.06
2022-10-19T00:08:19.630Z,97144.03
2022-10-19T00:10:45.960Z,97137.06
2022-10-19T00:13:12.288Z,97133.34
2022-10-19T00:15:38.604Z,97137.06
2022-10-19T00:18:04.931Z,97136.78
2022-10-19T00:20:31.278Z,97137.06
2022-10-19T00:22:57.622Z,97133.34
2022-10-19T00:25:23.950Z,97134.41
2022-10-19T00:27:50.306Z,97130.97
2022-10-19T00:30:16.655Z,97136.53
2022-10-19T00:32:42.988Z,97127.19
2022-10-19T00:35:09.312Z,97138.69
2022-10-19T00:37:35.642Z,97137.06
2022-10-19T00:40:01.981Z,97137.88
2022-10-19T00:42:28.325Z,97138.16
2022-10-19T00:44:54.658Z,97134.41
2022-10-19T00:47:20.980Z,97140.84
2022-10-19T00:49:47.324Z,97136.06
2022-10-19T00:52:13.661Z,97133.91
2022-10-19T00:54:40.005Z,97128.56
2022-10-19T00:57:06.336Z,97140.84
2022-10-19T00:59:32.686Z,97132.31
2022-10-19T01:01:59.019Z,97130.16
2022-10-19T01:04:25.357Z,97132.31
2022-10-19T01:09:17.921Z,97130.72
2022-10-19T01:11:44.253Z,97123.81
2022-10-19T01:14:10.575Z,97123.00
2022-10-19T01:16:36.897Z,97122.72
2022-10-19T01:19:03.241Z,97114.69
2022-10-19T01:21:29.582Z,97120.03
2022-10-19T01:23:55.912Z,97113.13
2022-10-19T01:26:22.246Z,97109.34
2022-10-19T01:28:48.622Z,97110.94
2022-10-19T01:31:15.041Z,97100.81
2022-10-19T01:33:41.396Z,97103.50
2022-10-19T01:36:07.728Z,97113.13
2022-10-19T01:38:34.067Z,97114.69
2022-10-19T01:41:00.392Z,97109.34
2022-10-19T01:43:26.726Z,97109.94
2022-10-19T01:45:53.058Z,97105.59
2022-10-19T01:48:19.384Z,97107.78
2022-10-19T01:50:45.708Z,97098.16
2022-10-19T01:53:12.041Z,97102.44
2022-10-19T01:55:38.384Z,97087.75
2022-10-19T01:58:08.229Z,97089.94
2022-10-19T02:00:35.976Z,97099.81
2022-10-19T02:03:02.322Z,97098.25
2022-10-19T02:05:28.655Z,97092.91
2022-10-19T02:07:54.996Z,97098.72
2022-10-19T02:10:21.325Z,97099.31
2022-10-19T02:12:47.670Z,97087.56
2022-10-19T02:15:14.174Z,97079.25
2022-10-19T02:17:40.499Z,97085.38
2022-10-19T02:20:06.837Z,97082.69
2022-10-19T02:22:33.519Z,97080.84
2022-10-19T02:25:00.143Z,97073.09
2022-10-19T02:27:26.493Z,97082.22
2022-10-19T02:29:52.825Z,97078.44
2022-10-19T02:32:19.162Z,97076.34
2022-10-19T02:34:45.496Z,97075.25
2022-10-19T02:37:11.834Z,97072.09
2022-10-19T02:39:38.168Z,97062.19
2022-10-19T02:42:04.494Z,97063.00
2022-10-19T02:44:30.837Z,97056.84
2022-10-19T02:46:57.169Z,97065.16
2022-10-19T02:49:23.509Z,97066.25
2022-10-19T02:51:49.841Z,97061.41
2022-10-19T02:54:16.179Z,97068.34
2022-10-19T02:56:42.517Z,97061.41
2022-10-19T02:59:08.843Z,97061.41
2022-10-19T03:01:35.183Z,97054.47
2022-10-19T03:04:01.530Z,97057.66
2022-10-19T03:06:27.869Z,97057.94
2022-10-19T03:08:54.193Z,97050.75
2022-10-19T03:11:20.519Z,97045.69
2022-10-19T03:16:14.109Z,97051.31
2022-10-19T03:18:40.445Z,97049.72
2022-10-19T03:21:06.781Z,97052.09
2022-10-19T03:23:33.114Z,97042.22
2022-10-19T03:25:59.450Z,97045.47
2022-10-19T03:28:25.815Z,97045.47
2022-10-19T03:30:52.154Z,97048.13
2022-10-19T03:33:18.533Z,97047.63
2022-10-19T03:35:44.913Z,97048.13
2022-10-19T03:38:11.245Z,97051.59
2022-10-19T03:40:37.584Z,97042.22
2022-10-19T03:43:03.924Z,97045.97
2022-10-19T03:45:30.264Z,97041.63
2022-10-19T03:47:56.592Z,97044.38
2022-10-19T03:50:22.934Z,97041.22
2022-10-19T03:52:49.335Z,97038.53
2022-10-19T03:55:15.761Z,97052.47
2022-10-19T03:57:42.095Z,97041.78
2022-10-19T04:00:08.447Z,97049.00
2022-10-19T04:02:34.784Z,97044.75
2022-10-19T04:05:01.126Z,97043.38
2022-10-19T04:07:27.464Z,97037.44
2022-10-19T04:09:53.803Z,97033.09
2022-10-19T04:12:20.143Z,97035.13
2022-10-19T04:14:56.985Z,97042.56
2022-10-19T04:17:24.101Z,97035.66
2022-10-19T04:19:50.440Z,97041.47
2022-10-19T04:22:16.773Z,97036.94
2022-10-19T04:24:43.108Z,97043.09
2022-10-19T04:27:09.445Z,97031.00
2022-10-19T04:29:35.788Z,97026.47
2022-10-19T04:32:02.125Z,97031.81
2022-10-19T04:34:28.458Z,97040.34
2022-10-19T04:36:54.791Z,97045.69
2022-10-19T04:39:21.138Z,97036.34
2022-10-19T04:41:47.483Z,97038.22
2022-10-19T04:44:13.906Z,97048.38
2022-10-19T04:46:40.292Z,97052.34
2022-10-19T04:49:06.677Z,97048.31
2022-10-19T04:51:33.092Z,97051.50
2022-10-19T04:53:59.935Z,97046.91
2022-10-19T04:56:26.518Z,97047.44
2022-10-19T04:58:52.852Z,97038.03
2022-10-19T05:01:19.272Z,97036.44
2022-10-19T05:03:45.687Z,97033.25
2022-10-19T05:06:12.067Z,97025.53
2022-10-19T05:08:38.403Z,97022.56
2022-10-19T05:11:04.745Z,97021.00
2022-10-19T05:13:31.084Z,97013.50
2022-10-19T05:15:57.421Z,97017.22
2022-10-19T05:18:23.770Z,97027.91
2022-10-19T05:20:50.110Z,97017.22
2022-10-19T05:23:16.458Z,97017.22
2022-10-19T05:25:42.796Z,97017.22
2022-10-19T05:28:09.134Z,97027.34
2022-10-19T05:30:35.479Z,97018.03
2022-10-19T05:33:01.830Z,97019.63
2022-10-19T05:35:28.177Z,97019.44
2022-10-19T05:37:54.512Z,97019.44
2022-10-19T05:40:20.873Z,97017.22
2022-10-19T05:42:47.204Z,97021.81
2022-10-19T05:45:13.541Z,97021.00
2022-10-19T05:47:39.871Z,97020.41
2022-10-19T05:50:06.204Z,97013.28
2022-10-19T05:52:32.549Z,97010.81
2022-10-19T05:54:58.889Z,97004.97
2022-10-19T05:57:25.224Z,97004.97
2022-10-19T05:59:51.573Z,97008.16
2022-10-19T06:02:17.905Z,97006.53
2022-10-19T06:04:44.258Z,97006.53
2022-10-19T06:07:10.606Z,97013.00
2022-10-19T06:09:36.936Z,97014.06
2022-10-19T06:12:03.285Z,97007.63
2022-10-19T06:14:29.638Z,97011.41
2022-10-19T06:16:55.958Z,97013.50
2022-10-19T06:19:22.285Z,97014.06
2022-10-19T06:21:48.663Z,97019.44
2022-10-19T06:24:15.001Z,97016.25
2022-10-19T06:26:41.338Z,97023.16
2022-10-19T06:29:07.684Z,97023.16
2022-10-19T06:31:34.043Z,97013.28
2022-10-19T06:34:00.409Z,97008.75
2022-10-19T06:36:26.769Z,97015.66
2022-10-19T06:38:53.119Z,97015.66
2022-10-19T06:41:19.479Z,97011.88
2022-10-19T06:43:45.814Z,97017.81
2022-10-19T06:46:12.154Z,97019.44
2022-10-19T06:48:38.564Z,97027.44
2022-10-19T06:51:06.289Z,97028.50
2022-10-19T06:53:32.930Z,97027.91
2022-10-19T06:55:59.278Z,97033.25
2022-10-19T06:58:25.622Z,97037.03
2022-10-19T07:00:52.006Z,97031.69
2022-10-19T07:03:18.381Z,97038.13
2022-10-19T07:05:44.716Z,97034.94
2022-10-19T07:08:11.060Z,97037.63
2022-10-19T07:10:37.427Z,97030.13
2022-10-19T07:13:03.804Z,97032.28
2022-10-19T07:15:30.210Z,97022.38
2022-10-19T07:17:56.549Z,97034.38
2022-10-19T07:20:22.884Z,97030.13
2022-10-19T07:22:49.237Z,97017.81
2022-10-19T07:25:15.576Z,97024.75
2022-10-19T07:27:42.165Z,97023.97
2022-10-19T07:30:08.690Z,97030.13
2022-10-19T07:32:35.077Z,97028.50
2022-10-19T07:35:01.419Z,97030.13
2022-10-19T07:37:27.756Z,97037.31
2022-10-19T07:39:54.092Z,97034.66
2022-10-19T07:42:23.390Z,97031.69
2022-10-19T07:44:49.723Z,97033.84
2022-10-19T07:47:16.057Z,97037.25
2022-10-19T07:49:42.398Z,97034.06
2022-10-19T07:52:08.730Z,97038.63
2022-10-19T07:54:35.076Z,97030.88
2022-10-19T07:57:01.399Z,97037.63
2022-10-19T07:59:27.740Z,97039.19
2022-10-19T08:01:54.123Z,97048.31
2022-10-19T08:07:06.833Z,97039.19
2022-10-19T08:09:51.935Z,97025.34
2022-10-19T08:12:19.462Z,97029.59
2022-10-19T08:14:45.801Z,97022.69
2022-10-19T08:17:12.144Z,97025.53
2022-10-19T08:19:38.493Z,97012.75
2022-10-19T08:22:04.811Z,97010.91
2022-10-19T08:24:31.159Z,97008.75
2022-10-19T08:26:57.484Z,97010.91
2022-10-19T08:29:25.555Z,97014.06
2022-10-19T08:31:54.149Z,97013.78
2022-10-19T08:34:20.644Z,97014.84
2022-10-19T08:36:47.012Z,97008.75
2022-10-19T08:39:13.339Z,97016.16
2022-10-19T08:41:39.709Z,97013.50
2022-10-19T08:44:07.714Z,97015.06
2022-10-19T08:46:36.384Z,97007.06
2022-10-19T08:49:02.723Z,96999.03
2022-10-19T08:51:29.049Z,96990.50
2022-10-19T08:53:55.425Z,96990.50
2022-10-19T08:56:45.873Z,96989.94
2022-10-19T08:59:08.095Z,96995.84
2022-10-19T09:01:36.920Z,96997.94
2022-10-19T09:04:04.132Z,96992.13
2022-10-19T09:06:30.460Z,96992.13
2022-10-19T09:08:56.855Z,96989.44
2022-10-19T09:11:23.207Z,96988.34
2022-10-19T09:14:04.210Z,96998.25
2022-10-19T09:16:31.662Z,96989.34
2022-10-19T09:18:58.001Z,96991.53
2022-10-19T09:21:31.002Z,97000.03
2022-10-19T09:24:04.278Z,96990.94
2022-10-19T09:26:30.612Z,96991.94
2022-10-19T09:28:56.961Z,96988.50
2022-10-19T09:31:23.279Z,96988.00
2022-10-19T09:33:49.612Z,96994.31
2022-10-19T09:36:22.555Z,96983.63
2022-10-19T09:38:53.972Z,96979.91
2022-10-19T09:41:20.319Z,96979.09
2022-10-19T09:43:46.652Z,96975.31
2022-10-19T09:46:19.777Z,96977.91
2022-10-19T09:48:46.756Z,96976.34
2022-10-19T09:51:13.107Z,96973.69
2022-10-19T09:53:39.448Z,96958.69
2022-10-19T09:56:05.815Z,96959.28
2022-10-19T09:58:33.212Z,96960.91
2022-10-19T10:00:59.820Z,96961.66
2022-10-19T10:03:26.163Z,96969.41
2022-10-19T10:05:52.499Z,96967.81
2022-10-19T10:08:18.823Z,96972.38
2022-10-19T10:10:45.147Z,96962.47
2022-10-19T10:13:11.482Z,96957.41
2022-10-19T10:15:37.814Z,96966.25
2022-10-19T10:18:04.136Z,96958.69
2022-10-19T10:20:30.473Z,96964.63
2022-10-19T10:22:56.810Z,96964.63
2022-10-19T10:25:23.153Z,96962.56
2022-10-19T10:27:49.480Z,96955.34
2022-10-19T10:30:15.829Z,96953.94
2022-10-19T10:32:44.512Z,96956.72
2022-10-19T10:35:13.632Z,96954.13
2022-10-19T10:37:39.977Z,96957.88
2022-10-19T10:40:06.314Z,96949.97
2022-10-19T10:42:32.934Z,96947.88
2022-10-19T10:44:59.554Z,96934.56
2022-10-19T10:47:25.898Z,96940.44
2022-10-19T10:49:52.221Z,96931.06
2022-10-19T10:52:18.543Z,96927.13
2022-10-19T10:54:44.886Z,96939.38
2022-10-19T10:57:11.291Z,96942.06
2022-10-19T10:59:39.431Z,96935.66
2022-10-19T11:02:08.142Z,96913.75
2022-10-19T11:04:34.497Z,96913.75
2022-10-19T11:07:00.841Z,96916.44
2022-10-19T11:09:27.190Z,96911.09
2022-10-19T11:11:53.544Z,96903.59
2022-10-19T11:14:19.894Z,96896.63
2022-10-19T11:16:46.226Z,96891.31
2022-10-19T11:19:12.617Z,96891.81
2022-10-19T11:21:38.987Z,96889.72
2022-10-19T11:24:05.316Z,96888.63
2022-10-19T11:26:31.643Z,96882.22
2022-10-19T11:28:57.994Z,96874.72
2022-10-19T11:31:24.346Z,96875.28
2022-10-19T11:33:50.664Z,96871.53
2022-10-19T11:36:17.006Z,96867.75
2022-10-19T11:38:43.358Z,96870.44
2022-10-19T11:41:18.176Z,96864.03
2022-10-19T11:43:45.117Z,96848.00
2022-10-19T11:46:11.452Z,96848.00
2022-10-19T11:48:40.373Z,96836.94
2022-10-19T11:51:20.842Z,96836.72
2022-10-19T11:53:48.288Z,96830.78
2022-10-19T11:56:14.605Z,96839.91
2022-10-19T11:58:40.942Z,96839.91
2022-10-19T12:01:07.298Z,96839.41
2022-10-19T12:03:33.637Z,96843.47
2022-10-19T12:05:59.972Z,96830.31
2022-10-19T12:08:26.348Z,96832.97
2022-10-19T12:10:52.720Z,96820.22
2022-10-19T12:13:19.055Z,96813.78
2022-10-19T12:15:45.390Z,96807.34
2022-10-19T12:18:11.750Z,96802.00
2022-10-19T12:20:38.070Z,96804.66
2022-10-19T12:23:04.423Z,96799.31
2022-10-19T12:25:30.783Z,96803.59
2022-10-19T12:27:57.125Z,96811.59
2022-10-19T12:30:23.462Z,96800.94
2022-10-19T12:32:53.475Z,96793.69
2022-10-19T12:37:51.952Z,96795.56
2022-10-19T12:40:18.275Z,96787.56
2022-10-19T12:42:44.594Z,96786.97
2022-10-19T12:45:10.940Z,96784.31
2022-10-19T12:47:37.546Z,96780.53
2022-10-19T12:50:04.092Z,96785.38
2022-10-19T12:52:30.435Z,96783.50
2022-10-19T12:54:56.767Z,96783.19
2022-10-19T12:57:23.137Z,96778.97
2022-10-19T12:59:49.476Z,96783.19
2022-10-19T13:02:15.840Z,96779.72
2022-10-19T13:04:42.164Z,96774.38
2022-10-19T13:07:08.576Z,96764.78
2022-10-19T13:09:34.976Z,96763.41
2022-10-19T13:12:01.308Z,96760.72
2022-10-19T13:14:27.646Z,96758.06
2022-10-19T13:16:53.976Z,96755.38
2022-10-19T13:19:20.322Z,96751.34
2022-10-19T13:21:46.654Z,96747.88
2022-10-19T13:24:13.002Z,96751.66
2022-10-19T13:26:39.343Z,96747.88
2022-10-19T13:29:05.672Z,96747.88
2022-10-19T13:31:31.991Z,96745.72
2022-10-19T13:33:58.325Z,96741.94
2022-10-19T13:36:24.667Z,96743.50
2022-10-19T13:38:50.991Z,96736.59
2022-10-19T13:41:17.334Z,96739.78
2022-10-19T13:43:43.677Z,96741.34
2022-10-19T13:46:10.012Z,96726.91
2022-10-19T13:48:36.355Z,96730.06
2022-10-19T13:51:02.692Z,96734.41
2022-10-19T13:53:29.012Z,96737.59
2022-10-19T13:55:55.331Z,96728.28
2022-10-19T13:58:21.665Z,96727.97
2022-10-19T14:00:48.011Z,96730.84
2022-10-19T14:03:14.373Z,96729.28
2022-10-19T14:05:40.721Z,96735.41
2022-10-19T14:08:07.073Z,96728.69
2022-10-19T14:10:56.273Z,96732.25
2022-10-19T14:13:19.728Z,96720.47
2022-10-19T14:15:46.062Z,96716.22
2022-10-19T14:18:19.045Z,96716.22
2022-10-19T14:20:45.757Z,96723.94
2022-10-19T14:23:12.089Z,96716.22
2022-10-19T14:25:38.412Z,96712.94
2022-10-19T14:28:04.745Z,96709.78
2022-10-19T14:30:31.076Z,96704.94
2022-10-19T14:33:01.135Z,96694.84
2022-10-19T14:35:28.758Z,96701.75
2022-10-19T14:37:55.087Z,96701.75
2022-10-19T14:40:26.361Z,96704.44
2022-10-19T14:42:54.251Z,96703.34
2022-10-19T14:45:20.585Z,96703.34
2022-10-19T14:47:46.925Z,96698.00
2022-10-19T14:50:13.257Z,96699.09
2022-10-19T14:52:39.597Z,96694.25
2022-10-19T14:55:05.926Z,96692.66
2022-10-19T14:57:32.549Z,96688.91
2022-10-19T14:59:59.136Z,96685.13
2022-10-19T15:02:25.473Z,96672.88
2022-10-19T15:04:51.805Z,96677.09
2022-10-19T15:07:18.140Z,96676.00
2022-10-19T15:09:48.121Z,96679.28
2022-10-19T15:12:14.929Z,96687.28
2022-10-19T15:14:41.268Z,96687.81
2022-10-19T15:17:07.600Z,96686.69
2022-10-19T15:19:33.939Z,96685.13
2022-10-19T15:22:00.265Z,96676.00
2022-10-19T15:24:26.589Z,96676.00
2022-10-19T15:27:01.872Z,96666.41
2022-10-19T15:29:33.190Z,96663.75
2022-10-19T15:31:59.513Z,96671.75
2022-10-19T15:34:25.845Z,96658.41
2022-10-19T15:36:52.181Z,96660.56
2022-10-19T15:39:32.687Z,96661.38
2022-10-19T15:42:03.332Z,96661.06
2022-10-19T15:44:29.659Z,96658.41
2022-10-19T15:46:55.987Z,96655.72
2022-10-19T15:49:22.318Z,96660.78
2022-10-19T15:51:48.653Z,96665.91
2022-10-19T15:54:14.990Z,96668.28
2022-10-19T15:56:41.312Z,96667.53
2022-10-19T15:59:07.652Z,96669.91
2022-10-19T16:01:34.091Z,96669.41
2022-10-19T16:04:00.478Z,96662.19
2022-10-19T16:06:26.823Z,96665.91
2022-10-19T16:08:53.239Z,96664.34
2022-10-19T16:11:19.618Z,96673.34
2022-10-19T16:13:45.933Z,96669.09
2022-10-19T16:16:12.272Z,96658.41
2022-10-19T16:18:38.596Z,96663.16
2022-10-19T16:21:04.935Z,96669.59
2022-10-19T16:23:31.271Z,96660.47
2022-10-19T16:25:57.602Z,96659.19
2022-10-19T16:28:23.932Z,96658.41
2022-10-19T16:30:50.265Z,96654.63
2022-10-19T16:33:16.615Z,96650.88
2022-10-19T16:35:42.974Z,96655.44
2022-10-19T16:38:09.301Z,96649.28
2022-10-19T16:40:35.655Z,96656.84
2022-10-19T16:43:02.129Z,96662.94
2022-10-19T16:45:28.472Z,96677.09
2022-10-19T16:47:54.805Z,96683.56
2022-10-19T16:50:21.138Z,96686.69
2022-10-19T16:52:47.469Z,96685.13
2022-10-19T16:55:13.796Z,96684.03
2022-10-19T16:57:40.137Z,96680.97
2022-10-19T17:00:06.458Z,96680.88
2022-10-19T17:02:33.040Z,96689.38
2022-10-19T17:04:59.645Z,96686.22
2022-10-19T17:07:25.965Z,96678.69
2022-10-19T17:09:54.639Z,96676.91
2022-10-19T17:12:21.286Z,96672.56
2022-10-19T17:14:47.617Z,96686.69
2022-10-19T17:17:13.938Z,96682.16
2022-10-19T17:19:40.268Z,96688.91
2022-10-19T17:22:06.610Z,96682.06
2022-10-19T17:24:32.981Z,96681.59
2022-10-19T17:26:59.332Z,96692.88
2022-10-19T17:29:25.672Z,96689.50
2022-10-19T17:31:52.030Z,96686.31
2022-10-19T17:34:18.373Z,96692.03
2022-10-19T17:36:44.898Z,96697.88
2022-10-19T17:39:11.365Z,96696.31
2022-10-19T17:41:37.719Z,96699.75
2022-10-19T17:44:04.091Z,96711.25
2022-10-19T17:46:30.548Z,96708.28
2022-10-19T17:48:56.902Z,96708.47
2022-10-19T17:51:23.251Z,96708.59
2022-10-19T17:53:49.587Z,96703.22
2022-10-19T17:56:15.929Z,96708.69
2022-10-19T17:58:42.264Z,96702.72
2022-10-19T18:01:08.601Z,96706.22
2022-10-19T18:03:34.947Z,96704.34
2022-10-19T18:06:01.332Z,96709.38
2022-10-19T18:08:27.736Z,96707.47
2022-10-19T18:10:54.096Z,96708.59
2022-10-19T18:13:20.514Z,96708.28
2022-10-19T18:15:46.867Z,96716.28
2022-10-19T18:18:13.205Z,96712.81
2022-10-19T18:20:39.535Z,96704.81
2022-10-19T18:23:05.889Z,96705.91
2022-10-19T18:25:52.887Z,96700.56
2022-10-19T18:28:18.543Z,96700.56
2022-10-19T18:30:45.356Z,96700.56
2022-10-19T18:33:11.782Z,96706.72
2022-10-19T18:35:38.131Z,96705.91
2022-10-19T18:38:04.529Z,96709.69
2022-10-19T18:40:30.904Z,96714.22
2022-10-19T18:42:57.249Z,96715.03
2022-10-19T18:45:23.583Z,96702.72
2022-10-19T18:47:49.941Z,96701.66
2022-10-19T18:52:47.540Z,96694.72
2022-10-19T18:55:13.883Z,96687.81
2022-10-19T18:57:40.227Z,96693.66
2022-10-19T19:00:06.564Z,96696.63
2022-10-19T19:02:46.537Z,96689.38
2022-10-19T19:05:13.627Z,96685.13
2022-10-19T19:07:39.974Z,96681.34
2022-10-19T19:10:06.327Z,96684.31
2022-10-19T19:12:32.894Z,96693.25
2022-10-19T19:14:59.565Z,96689.38
2022-10-19T19:17:25.906Z,96688.91
2022-10-19T19:19:52.242Z,96678.81
2022-10-19T19:22:18.573Z,96681.97
2022-10-19T19:24:44.923Z,96679.28
2022-10-19T19:27:11.270Z,96676.59
2022-10-19T19:29:37.609Z,96687.28
2022-10-19T19:32:03.952Z,96692.66
2022-10-19T19:34:30.316Z,96685.72
2022-10-19T19:36:56.664Z,96681.19
2022-10-19T19:39:22.996Z,96680.38
2022-10-19T19:41:49.387Z,96684.16
2022-10-19T19:44:15.739Z,96678.81
2022-10-19T19:46:42.079Z,96681.94
2022-10-19T19:49:08.442Z,96685.13
2022-10-19T19:51:34.852Z,96687.28
2022-10-19T19:54:01.221Z,96680.38
2022-10-19T19:56:28.571Z,96681.47
2022-10-19T19:58:55.276Z,96681.94
2022-10-19T20:01:21.733Z,96689.19
2022-10-19T20:03:48.166Z,96687.28
2022-10-19T20:06:14.518Z,96689.00
2022-10-19T20:08:40.938Z,96683.06
2022-10-19T20:11:07.333Z,96683.06
2022-10-19T20:13:33.671Z,96686.03
2022-10-19T20:16:00.003Z,96686.81
2022-10-19T20:18:26.747Z,96687.91
2022-10-19T20:20:53.174Z,96693.84
2022-10-19T20:23:19.522Z,96698.59
2022-10-19T20:25:45.860Z,96706.31
2022-10-19T20:28:12.192Z,96700.19
2022-10-19T20:30:38.542Z,96702.34
2022-10-19T20:33:04.883Z,96700.19
2022-10-19T20:35:31.233Z,96699.78
2022-10-19T20:37:57.603Z,96700.75
2022-10-19T20:40:23.978Z,96703.94
2022-10-19T20:42:50.355Z,96710.06
2022-10-19T20:45:16.696Z,96715.41
2022-10-19T20:47:43.027Z,96710.88
2022-10-19T20:50:09.375Z,96703.94
2022-10-19T20:52:35.972Z,96694.03
2022-10-19T20:55:02.523Z,96699.69
2022-10-19T20:57:28.924Z,96690.88
2022-10-19T20:59:55.261Z,96693.25
2022-10-19T21:02:21.602Z,96689.78
2022-10-19T21:04:47.946Z,96697.78
2022-10-19T21:07:14.281Z,96687.91
2022-10-19T21:09:40.639Z,96697.00
2022-10-19T21:12:06.978Z,96699.69
2022-10-19T21:14:33.415Z,96700.75
2022-10-19T21:16:59.801Z,96698.09
2022-10-19T21:19:26.162Z,96695.91
2022-10-19T21:21:52.504Z,96694.63
2022-10-19T21:24:18.839Z,96690.06
2022-10-19T21:26:45.268Z,96687.91
2022-10-19T21:29:11.640Z,96697.00
2022-10-19T21:31:37.980Z,96690.06
2022-10-19T21:34:04.318Z,96698.59
2022-10-19T21:36:30.648Z,96691.66
2022-10-19T21:38:57.019Z,96690.88
2022-10-19T21:41:26.201Z,96685.53
2022-10-19T21:43:52.986Z,96690.88
2022-10-19T21:46:19.327Z,96692.44
2022-10-19T21:48:45.678Z,96695.81
2022-10-19T21:51:12.025Z,96694.84
2022-10-19T21:53:38.374Z,96680.69
2022-10-19T21:56:04.722Z,96678.31
2022-10-19T21:58:31.066Z,96685.53
2022-10-19T22:00:57.410Z,96682.56
2022-10-19T22:03:23.743Z,96674.84
2022-10-19T22:05:50.083Z,96674.84
2022-10-19T22:08:16.420Z,96679.38
2022-10-19T22:10:42.766Z,96679.38
2022-10-19T22:13:09.112Z,96673.25
2022-10-19T22:15:35.465Z,96671.66
2022-10-19T22:18:01.793Z,96675.63
2022-10-19T22:20:28.128Z,96672.47
2022-10-19T22:22:55.070Z,96664.44
2022-10-19T22:25:21.517Z,96658.00
2022-10-19T22:27:47.865Z,96661.28
2022-10-19T22:30:14.207Z,96660.97
2022-10-19T22:32:40.553Z,96660.97
2022-10-19T22:35:06.888Z,96660.97
2022-10-19T22:37:33.226Z,96658.00
2022-10-19T22:39:59.569Z,96645.75
2022-10-19T22:42:25.901Z,96653.75
2022-10-19T22:44:52.246Z,96648.91
2022-10-19T22:47:18.576Z,96651.09
2022-10-19T22:49:44.903Z,96641.19
2022-10-19T22:52:11.233Z,96640.41
2022-10-19T22:54:37.572Z,96640.41
2022-10-19T22:57:03.913Z,96638.81
2022-10-19T22:59:30.257Z,96643.06
2022-10-19T23:01:56.631Z,96638.81
2022-10-19T23:04:23.041Z,96641.50
2022-10-19T23:06:49.380Z,96628.91
2022-10-19T23:09:15.708Z,96631.88
2022-10-19T23:11:42.040Z,96621.69
2022-10-19T23:14:08.373Z,96617.44
2022-10-19T23:16:34.709Z,96613.69
2022-10-19T23:19:01.058Z,96605.97
2022-10-19T23:21:27.401Z,96607.06
2022-10-19T23:23:53.749Z,96615.56
2022-10-19T23:26:20.094Z,96612.09
2022-10-19T23:28:46.438Z,96610.50
2022-10-19T23:31:12.759Z,96608.34
2022-10-19T23:33:39.108Z,96609.13
2022-10-19T23:36:05.454Z,96596.06
2022-10-19T23:38:31.789Z,96598.25
2022-10-19T23:40:58.137Z,96591.50
2022-10-19T23:43:24.545Z,96600.63
2022-10-19T23:45:50.912Z,96605.16
2022-10-19T23:48:17.254Z,96596.44
2022-10-19T23:50:43.590Z,96599.22
2022-10-19T23:53:09.915Z,96597.66
2022-10-19T23:55:36.239Z,96603.59
2022-10-19T23:58:02.580Z,96598.75
